createdAt,value
2018-12-01T00:03:32.524Z,13.17
2018-12-01T00:06:01.074Z,11.87
2018-12-01T00:08:29.574Z,12.20
2018-12-01T00:10:59.903Z,12.20
2018-12-01T00:13:28.355Z,11.93
2018-12-01T00:15:58.232Z,12.20
2018-12-01T00:18:26.759Z,11.73
2018-12-01T00:20:55.278Z,11.60
2018-12-01T00:23:23.764Z,11.63
2018-12-01T00:25:53.272Z,11.33
2018-12-01T00:28:21.719Z,11.30
2018-12-01T00:30:50.222Z,10.90
2018-12-01T00:33:18.732Z,11.90
2018-12-01T00:35:47.246Z,12.13
2018-12-01T00:38:15.848Z,10.60
2018-12-01T00:40:44.324Z,10.67
2018-12-01T00:43:12.748Z,10.20
2018-12-01T00:45:41.205Z,11.17
2018-12-01T00:48:09.697Z,10.27
2018-12-01T00:50:38.191Z,10.83
2018-12-01T00:53:06.725Z,10.90
2018-12-01T00:55:35.148Z,10.23
2018-12-01T00:58:03.685Z,10.37
2018-12-01T01:00:32.202Z,10.67
2018-12-01T01:03:01.113Z,10.07
2018-12-01T01:05:30.517Z,10.40
2018-12-01T01:08:00.062Z,10.13
2018-12-01T01:10:29.799Z,10.40
2018-12-01T01:12:58.335Z,9.97
2018-12-01T01:15:26.925Z,10.57
2018-12-01T01:17:55.424Z,10.00
2018-12-01T01:20:24.719Z,9.90
2018-12-01T01:22:53.271Z,9.80
2018-12-01T01:25:21.756Z,9.77
2018-12-01T01:27:50.328Z,9.93
2018-12-01T01:30:21.735Z,9.70
2018-12-01T01:32:51.263Z,10.30
2018-12-01T01:35:19.776Z,9.60
2018-12-01T01:37:48.254Z,9.37
2018-12-01T01:40:17.618Z,9.83
2018-12-01T01:42:46.251Z,8.57
2018-12-01T01:45:16.810Z,10.03
2018-12-01T01:47:45.365Z,8.77
2018-12-01T01:50:19.558Z,10.00
2018-12-01T01:52:48.139Z,9.60
2018-12-01T01:55:16.606Z,9.53
2018-12-01T01:57:45.074Z,9.07
2018-12-01T02:00:16.664Z,9.07
2018-12-01T02:02:46.381Z,8.83
2018-12-01T02:05:17.478Z,10.17
2018-12-01T02:07:45.928Z,8.70
2018-12-01T02:10:15.370Z,8.77
2018-12-01T02:12:44.152Z,8.60
2018-12-01T02:15:13.454Z,8.63
2018-12-01T02:17:42.327Z,8.63
2018-12-01T02:20:14.760Z,8.63
2018-12-01T02:22:43.920Z,8.23
2018-12-01T02:25:13.354Z,8.00
2018-12-01T02:27:41.913Z,8.60
2018-12-01T02:30:12.412Z,8.97
2018-12-01T02:32:40.933Z,8.70
2018-12-01T02:35:14.486Z,8.70
2018-12-01T02:37:43.133Z,8.83
2018-12-01T02:40:12.423Z,8.87
2018-12-01T02:42:41.632Z,9.20
2018-12-01T02:45:21.399Z,9.40
2018-12-01T02:47:50.615Z,10.07
2018-12-01T02:50:29.426Z,9.27
2018-12-01T02:53:00.482Z,9.80
2018-12-01T02:55:30.890Z,10.93
2018-12-01T02:57:59.418Z,10.83
2018-12-01T03:00:27.857Z,11.17
2018-12-01T03:02:56.338Z,10.80
2018-12-01T03:05:24.760Z,10.50
2018-12-01T03:07:53.441Z,10.87
2018-12-01T03:10:22.599Z,11.53
2018-12-01T03:12:52.746Z,11.50
2018-12-01T03:15:22.856Z,13.27
2018-12-01T03:17:52.208Z,11.40
2018-12-01T03:20:20.871Z,10.00
2018-12-01T03:22:51.550Z,10.87
2018-12-01T03:25:22.545Z,11.63
2018-12-01T03:27:51.710Z,10.77
2018-12-01T03:30:21.243Z,10.43
2018-12-01T03:32:50.454Z,10.53
2018-12-01T03:35:19.273Z,10.50
2018-12-01T03:37:48.798Z,11.07
2018-12-01T03:40:18.089Z,11.23
2018-12-01T03:42:46.573Z,10.40
2018-12-01T03:45:16.899Z,10.93
2018-12-01T03:47:45.444Z,10.87
2018-12-01T03:50:19.019Z,10.33
2018-12-01T03:52:47.504Z,10.10
2018-12-01T03:55:25.094Z,9.97
2018-12-01T03:57:55.416Z,11.27
2018-12-01T04:00:28.242Z,10.70
2018-12-01T04:02:59.748Z,10.50
2018-12-01T04:05:30.395Z,11.83
2018-12-01T04:08:00.046Z,10.17
2018-12-01T04:10:28.518Z,11.17
2018-12-01T04:12:57.439Z,11.17
2018-12-01T04:15:26.467Z,12.33
2018-12-01T04:17:56.603Z,11.13
2018-12-01T04:20:25.383Z,12.10
2018-12-01T04:22:54.199Z,10.90
2018-12-01T04:25:23.053Z,10.63
2018-12-01T04:27:51.521Z,10.70
2018-12-01T04:30:26.651Z,10.87
2018-12-01T04:32:55.431Z,10.87
2018-12-01T04:35:24.606Z,10.80
2018-12-01T04:37:55.495Z,10.67
2018-12-01T04:40:24.434Z,10.53
2018-12-01T04:42:53.547Z,9.80
2018-12-01T04:45:21.997Z,10.73
2018-12-01T04:47:50.642Z,11.07
2018-12-01T04:50:19.365Z,10.43
2018-12-01T04:52:49.145Z,9.93
2018-12-01T04:55:18.780Z,10.93
2018-12-01T04:57:47.749Z,11.03
2018-12-01T05:00:21.022Z,10.80
2018-12-01T05:02:49.640Z,11.17
2018-12-01T05:05:19.246Z,10.87
2018-12-01T05:07:47.807Z,10.40
2018-12-01T05:10:17.396Z,12.47
2018-12-01T05:12:46.304Z,12.60
2018-12-01T05:15:17.022Z,12.80
2018-12-01T05:17:45.773Z,12.47
2018-12-01T05:20:19.540Z,12.07
2018-12-01T05:22:48.607Z,12.43
2018-12-01T05:25:17.483Z,13.30
2018-12-01T05:27:45.990Z,11.93
2018-12-01T05:30:14.847Z,11.87
2018-12-01T05:32:43.394Z,13.17
2018-12-01T05:35:14.991Z,12.40
2018-12-01T05:37:43.508Z,11.90
2018-12-01T05:40:12.829Z,12.30
2018-12-01T05:42:41.673Z,12.80
2018-12-01T05:45:17.943Z,12.20
2018-12-01T05:47:46.398Z,11.67
2018-12-01T05:50:20.171Z,12.27
2018-12-01T05:52:48.819Z,11.93
2018-12-01T05:55:17.289Z,11.43
2018-12-01T05:57:45.826Z,13.97
2018-12-01T06:00:15.374Z,10.63
2018-12-01T06:02:43.828Z,11.20
2018-12-01T06:05:12.498Z,10.80
2018-12-01T06:07:42.839Z,10.70
2018-12-01T06:10:19.339Z,11.63
2018-12-01T06:12:48.402Z,11.77
2018-12-01T06:15:17.588Z,10.93
2018-12-01T06:17:46.151Z,10.70
2018-12-01T06:20:18.283Z,11.17
2018-12-01T06:22:46.858Z,10.37
2018-12-01T06:25:16.520Z,10.70
2018-12-01T06:27:45.227Z,9.67
2018-12-01T06:30:15.949Z,10.20
2018-12-01T06:32:44.859Z,10.40
2018-12-01T06:35:13.490Z,11.67
2018-12-01T06:37:42.433Z,9.90
2018-12-01T06:40:14.970Z,18.97
2018-12-01T06:42:43.411Z,16.17
2018-12-01T06:45:12.977Z,13.80
2018-12-01T06:47:41.534Z,11.50
2018-12-01T06:50:11.679Z,10.77
2018-12-01T06:52:40.166Z,10.33
2018-12-01T06:55:10.195Z,9.50
2018-12-01T06:57:38.731Z,10.73
2018-12-01T07:00:14.706Z,10.00
2018-12-01T07:02:43.785Z,10.20
2018-12-01T07:05:13.258Z,9.07
2018-12-01T07:07:41.767Z,8.77
2018-12-01T07:10:12.504Z,8.70
2018-12-01T07:12:42.215Z,8.70
2018-12-01T07:15:13.840Z,7.70
2018-12-01T07:17:42.409Z,8.10
2018-12-01T07:20:11.027Z,8.13
2018-12-01T07:22:39.585Z,7.90
2018-12-01T07:25:08.292Z,8.10
2018-12-01T07:28:40.090Z,7.50
2018-12-01T07:31:08.579Z,7.37
2018-12-01T07:33:37.039Z,7.10
2018-12-01T07:36:05.830Z,6.83
2018-12-01T07:38:34.420Z,7.33
2018-12-01T07:41:02.876Z,6.77
2018-12-01T07:43:31.413Z,7.40
2018-12-01T07:45:59.935Z,7.07
2018-12-01T07:48:28.514Z,6.57
2018-12-01T07:50:56.971Z,7.17
2018-12-01T07:53:25.531Z,6.83
2018-12-01T07:55:54.228Z,7.00
2018-12-01T07:58:22.765Z,6.33
2018-12-01T08:00:51.349Z,6.67
2018-12-01T08:03:19.821Z,6.97
2018-12-01T08:05:48.229Z,6.50
2018-12-01T08:08:17.590Z,6.30
2018-12-01T08:10:46.421Z,6.97
2018-12-01T08:13:14.927Z,6.73
2018-12-01T08:15:43.449Z,6.60
2018-12-01T08:18:11.984Z,6.17
2018-12-01T08:20:40.458Z,6.50
2018-12-01T08:23:08.983Z,5.87
2018-12-01T08:25:37.450Z,20.17
2018-12-01T08:28:07.559Z,19.77
2018-12-01T08:30:35.975Z,52.37
2018-12-01T08:33:05.223Z,24.70
2018-12-01T08:35:33.656Z,24.47
2018-12-01T08:38:02.164Z,29.47
2018-12-01T08:40:31.595Z,24.13
2018-12-01T08:43:00.144Z,30.03
2018-12-01T08:45:28.642Z,20.63
2018-12-01T08:47:57.435Z,16.67
2018-12-01T08:50:25.879Z,17.10
2018-12-01T08:52:54.383Z,13.90
2018-12-01T08:55:24.724Z,10.23
2018-12-01T08:57:53.900Z,9.17
2018-12-01T09:00:28.864Z,8.63
2018-12-01T09:03:03.173Z,7.30
2018-12-01T09:05:31.648Z,5.80
2018-12-01T09:08:00.084Z,6.23
2018-12-01T09:10:28.522Z,4.70
2018-12-01T09:13:01.549Z,5.07
2018-12-01T09:15:25.590Z,5.27
2018-12-01T09:17:54.052Z,5.10
2018-12-01T09:20:22.632Z,5.07
2018-12-01T09:22:51.106Z,4.80
2018-12-01T09:25:19.745Z,4.23
2018-12-01T09:27:48.265Z,4.80
2018-12-01T09:30:21.129Z,4.20
2018-12-01T09:32:49.698Z,4.30
2018-12-01T09:35:18.123Z,4.23
2018-12-01T09:37:46.543Z,4.07
2018-12-01T09:40:16.205Z,4.77
2018-12-01T09:42:45.129Z,4.50
2018-12-01T09:45:15.618Z,3.93
2018-12-01T09:47:45.077Z,4.43
2018-12-01T09:50:14.412Z,4.30
2018-12-01T09:52:43.077Z,4.47
2018-12-01T09:55:13.611Z,4.50
2018-12-01T09:57:43.130Z,4.23
2018-12-01T10:00:14.636Z,4.60
2018-12-01T10:02:43.680Z,4.43
2018-12-01T10:05:13.697Z,4.93
2018-12-01T10:07:42.134Z,4.40
2018-12-01T10:10:12.802Z,4.20
2018-12-01T10:12:41.262Z,4.50
2018-12-01T10:15:15.093Z,4.03
2018-12-01T10:17:43.656Z,4.10
2018-12-01T10:20:15.481Z,4.10
2018-12-01T10:22:44.035Z,3.93
2018-12-01T10:25:13.881Z,4.37
2018-12-01T10:27:42.346Z,4.50
2018-12-01T10:30:14.881Z,4.33
2018-12-01T10:32:43.363Z,4.20
2018-12-01T10:35:14.512Z,4.63
2018-12-01T10:38:15.112Z,5.33
2018-12-01T10:40:43.989Z,6.23
2018-12-01T10:43:12.581Z,4.03
2018-12-01T10:45:41.145Z,4.57
2018-12-01T10:48:10.164Z,4.30
2018-12-01T10:50:38.930Z,4.47
2018-12-01T10:53:07.824Z,3.73
2018-12-01T10:55:36.386Z,3.73
2018-12-01T10:58:08.004Z,3.93
2018-12-01T11:00:41.651Z,3.70
2018-12-01T11:06:01.042Z,3.60
2018-12-01T11:08:29.532Z,3.33
2018-12-01T11:10:57.969Z,3.83
2018-12-01T11:13:26.474Z,3.57
2018-12-01T11:15:55.316Z,3.33
2018-12-01T11:18:30.104Z,2.83
2018-12-01T11:20:58.550Z,3.17
2018-12-01T11:23:27.732Z,2.90
2018-12-01T11:25:57.214Z,2.70
2018-12-01T11:28:25.972Z,2.63
2018-12-01T11:30:54.602Z,2.53
2018-12-01T11:33:23.098Z,2.57
2018-12-01T11:35:52.277Z,2.80
2018-12-01T11:38:21.251Z,2.60
2018-12-01T11:40:49.748Z,2.90
2018-12-01T11:43:18.286Z,2.57
2018-12-01T11:45:46.793Z,3.10
2018-12-01T11:48:15.409Z,3.10
2018-12-01T11:50:43.871Z,3.50
2018-12-01T11:53:12.472Z,3.60
2018-12-01T11:55:40.897Z,3.57
2018-12-01T11:58:09.524Z,3.63
2018-12-01T12:00:38.023Z,4.57
2018-12-01T12:03:06.512Z,4.47
2018-12-01T12:05:35.089Z,4.50
2018-12-01T12:08:24.159Z,4.40
2018-12-01T12:10:52.918Z,3.70
2018-12-01T12:13:22.706Z,3.57
2018-12-01T12:15:51.664Z,3.80
2018-12-01T12:18:20.628Z,3.77
2018-12-01T12:20:49.542Z,4.10
2018-12-01T12:23:18.194Z,4.23
2018-12-01T12:25:47.045Z,4.10
2018-12-01T12:28:15.524Z,3.87
2018-12-01T12:30:44.073Z,3.83
2018-12-01T12:33:12.602Z,3.87
2018-12-01T12:35:41.101Z,3.70
2018-12-01T12:38:09.616Z,4.23
2018-12-01T12:40:38.021Z,3.97
2018-12-01T12:43:06.934Z,3.63
2018-12-01T12:45:35.390Z,3.83
2018-12-01T12:48:04.813Z,3.70
2018-12-01T12:50:33.308Z,3.10
2018-12-01T12:53:01.969Z,3.50
2018-12-01T12:55:30.518Z,3.00
2018-12-01T12:57:59.022Z,3.10
2018-12-01T13:00:28.248Z,2.90
2018-12-01T13:02:59.055Z,4.00
2018-12-01T13:05:29.850Z,3.60
2018-12-01T13:07:58.417Z,3.20
2018-12-01T13:10:27.025Z,2.83
2018-12-01T13:12:55.919Z,2.30
2018-12-01T13:15:24.390Z,2.50
2018-12-01T13:17:54.069Z,2.40
2018-12-01T13:20:22.749Z,2.63
2018-12-01T13:22:52.866Z,2.37
2018-12-01T13:25:21.309Z,3.17
2018-12-01T13:27:54.559Z,3.27
2018-12-01T13:30:24.579Z,3.20
2018-12-01T13:32:53.207Z,3.63
2018-12-01T13:35:21.760Z,3.77
2018-12-01T13:37:50.394Z,3.57
2018-12-01T13:40:18.919Z,3.70
2018-12-01T13:42:47.542Z,3.53
2018-12-01T13:45:18.573Z,3.70
2018-12-01T13:47:48.562Z,3.53
2018-12-01T13:50:19.331Z,4.20
2018-12-01T13:52:51.459Z,4.60
2018-12-01T13:55:19.915Z,4.57
2018-12-01T13:57:48.470Z,4.97
2018-12-01T14:00:21.383Z,5.20
2018-12-01T14:02:49.824Z,6.07
2018-12-01T14:05:18.365Z,5.63
2018-12-01T14:07:46.867Z,6.30
2018-12-01T14:10:20.444Z,8.03
2018-12-01T14:12:52.301Z,8.90
2018-12-01T14:15:21.759Z,7.57
2018-12-01T14:17:50.916Z,6.53
2018-12-01T14:20:19.750Z,6.70
2018-12-01T14:22:49.021Z,6.97
2018-12-01T14:25:19.752Z,6.80
2018-12-01T14:27:50.737Z,6.43
2018-12-01T14:30:19.645Z,6.33
2018-12-01T14:32:48.185Z,6.80
2018-12-01T14:35:19.376Z,5.80
2018-12-01T14:37:49.610Z,5.57
2018-12-01T14:40:18.043Z,5.87
2018-12-01T14:42:46.467Z,6.80
2018-12-01T14:45:16.141Z,6.77
2018-12-01T14:47:44.591Z,6.00
2018-12-01T14:50:14.432Z,6.73
2018-12-01T14:52:43.917Z,6.33
2018-12-01T14:55:13.819Z,6.33
2018-12-01T14:57:42.669Z,6.30
2018-12-01T15:00:15.376Z,5.73
2018-12-01T15:02:44.678Z,6.30
2018-12-01T15:05:13.740Z,7.93
2018-12-01T15:07:42.248Z,6.83
2018-12-01T15:10:15.848Z,8.00
2018-12-01T15:12:45.141Z,18.12
2018-12-01T15:15:15.840Z,12.77
2018-12-01T15:17:44.429Z,16.73
2018-12-01T15:20:14.649Z,10.40
2018-12-01T15:22:44.253Z,6.30
2018-12-01T15:25:15.819Z,5.90
2018-12-01T15:27:44.710Z,7.30
2018-12-01T15:30:22.297Z,6.20
2018-12-01T15:32:52.892Z,7.45
2018-12-01T15:35:21.521Z,7.27
2018-12-01T15:37:50.044Z,5.70
2018-12-01T15:40:19.397Z,5.63
2018-12-01T15:42:48.065Z,6.23
2018-12-01T15:45:18.855Z,5.80
2018-12-01T15:47:47.341Z,5.57
2018-12-01T15:50:21.289Z,5.87
2018-12-01T15:52:54.136Z,5.70
2018-12-01T15:55:24.814Z,6.00
2018-12-01T15:57:54.799Z,6.07
2018-12-01T16:00:24.600Z,5.90
2018-12-01T16:02:53.159Z,6.13
2018-12-01T16:05:22.623Z,6.20
2018-12-01T16:07:54.510Z,6.03
2018-12-01T16:10:23.499Z,6.30
2018-12-01T16:12:54.446Z,5.80
2018-12-01T16:15:28.245Z,6.30
2018-12-01T16:17:56.837Z,6.43
2018-12-01T16:20:25.300Z,6.40
2018-12-01T16:22:54.148Z,6.47
2018-12-01T16:25:23.646Z,6.70
2018-12-01T16:27:52.726Z,6.27
2018-12-01T16:30:27.460Z,6.53
2018-12-01T16:32:58.230Z,6.47
2018-12-01T16:35:27.140Z,6.70
2018-12-01T16:37:56.344Z,6.67
2018-12-01T16:40:29.207Z,7.87
2018-12-01T16:42:58.978Z,6.83
2018-12-01T16:45:27.855Z,6.60
2018-12-01T16:47:56.646Z,6.77
2018-12-01T16:50:25.688Z,6.53
2018-12-01T16:52:54.503Z,6.50
2018-12-01T16:55:23.095Z,6.73
2018-12-01T16:57:51.944Z,6.77
2018-12-01T17:00:21.006Z,6.73
2018-12-01T17:02:55.377Z,6.50
2018-12-01T17:05:25.914Z,6.87
2018-12-01T17:07:54.868Z,6.67
2018-12-01T17:10:24.377Z,7.13
2018-12-01T17:12:55.473Z,7.60
2018-12-01T17:15:23.935Z,7.60
2018-12-01T17:17:52.451Z,8.80
2018-12-01T17:20:21.261Z,8.53
2018-12-01T17:22:58.305Z,10.00
2018-12-01T17:25:27.778Z,9.57
2018-12-01T17:27:57.708Z,12.37
2018-12-01T17:30:30.603Z,12.27
2018-12-01T17:33:00.964Z,10.97
2018-12-01T17:35:31.486Z,8.00
2018-12-01T17:38:04.998Z,7.37
2018-12-01T17:41:07.893Z,8.40
2018-12-01T17:43:44.858Z,7.67
2018-12-01T17:46:13.402Z,7.70
2018-12-01T17:48:42.012Z,7.63
2018-12-01T17:51:10.854Z,7.77
2018-12-01T17:53:40.056Z,6.93
2018-12-01T17:56:08.535Z,7.40
2018-12-01T17:58:37.968Z,7.30
2018-12-01T18:01:07.297Z,7.27
2018-12-01T18:03:36.031Z,7.13
2018-12-01T18:06:08.433Z,7.50
2018-12-01T18:08:37.475Z,7.20
2018-12-01T18:11:06.889Z,7.63
2018-12-01T18:13:35.560Z,8.30
2018-12-01T18:16:04.558Z,7.87
2018-12-01T18:18:33.099Z,8.13
2018-12-01T18:21:01.703Z,8.07
2018-12-01T18:23:30.783Z,7.60
2018-12-01T18:25:59.259Z,7.90
2018-12-01T18:28:34.759Z,7.33
2018-12-01T18:31:06.846Z,7.83
2018-12-01T18:33:37.217Z,7.90
2018-12-01T18:36:07.098Z,7.80
2018-12-01T18:38:35.567Z,7.53
2018-12-01T18:41:04.488Z,6.93
2018-12-01T18:43:32.929Z,7.10
2018-12-01T18:46:03.033Z,7.40
2018-12-01T18:48:31.459Z,8.20
2018-12-01T18:51:00.016Z,7.60
2018-12-01T18:53:29.138Z,7.37
2018-12-01T18:55:58.035Z,7.37
2018-12-01T18:58:26.563Z,7.33
2018-12-01T19:00:56.930Z,7.37
2018-12-01T19:03:27.051Z,7.40
2018-12-01T19:05:56.352Z,7.17
2018-12-01T19:08:24.847Z,7.80
2018-12-01T19:10:53.711Z,8.83
2018-12-01T19:13:22.229Z,10.57
2018-12-01T19:15:51.759Z,11.57
2018-12-01T19:18:20.608Z,9.47
2018-12-01T19:20:49.071Z,8.30
2018-12-01T19:23:19.130Z,7.57
2018-12-01T19:25:50.234Z,7.27
2018-12-01T19:28:18.667Z,7.40
2018-12-01T19:30:47.168Z,7.23
2018-12-01T19:33:17.872Z,6.90
2018-12-01T19:35:47.309Z,7.17
2018-12-01T19:38:18.562Z,6.93
2018-12-01T19:40:47.130Z,7.07
2018-12-01T19:43:16.567Z,6.87
2018-12-01T19:45:45.076Z,6.20
2018-12-01T19:48:13.649Z,6.00
2018-12-01T19:50:42.386Z,6.03
2018-12-01T19:53:13.314Z,6.37
2018-12-01T19:55:42.153Z,6.67
2018-12-01T19:58:13.383Z,6.70
2018-12-01T20:00:43.137Z,7.00
2018-12-01T20:03:16.392Z,6.70
2018-12-01T20:05:44.886Z,6.63
2018-12-01T20:08:14.447Z,7.27
2018-12-01T20:10:57.289Z,6.57
2018-12-01T20:13:40.880Z,7.00
2018-12-01T20:16:22.865Z,6.67
2018-12-01T20:18:51.899Z,6.67
2018-12-01T20:21:20.350Z,6.50
2018-12-01T20:23:49.213Z,6.07
2018-12-01T20:26:17.762Z,7.40
2018-12-01T20:28:46.299Z,7.13
2018-12-01T20:31:15.104Z,7.87
2018-12-01T20:33:43.602Z,7.53
2018-12-01T20:36:15.572Z,7.17
2018-12-01T20:38:51.157Z,7.77
2018-12-01T20:41:19.654Z,7.43
2018-12-01T20:43:49.096Z,8.03
2018-12-01T20:46:17.655Z,7.70
2018-12-01T20:48:46.167Z,6.40
2018-12-01T20:51:15.209Z,7.57
2018-12-01T20:53:43.679Z,7.03
2018-12-01T20:56:17.144Z,7.33
2018-12-01T20:58:45.602Z,6.80
2018-12-01T21:01:14.122Z,6.80
2018-12-01T21:03:42.602Z,7.10
2018-12-01T21:06:11.016Z,7.10
2018-12-01T21:08:39.777Z,6.87
2018-12-01T21:11:10.963Z,7.17
2018-12-01T21:13:39.427Z,6.50
2018-12-01T21:16:08.151Z,7.17
2018-12-01T21:18:36.619Z,6.93
2018-12-01T21:21:05.150Z,7.20
2018-12-01T21:23:33.620Z,7.60
2018-12-01T21:26:02.150Z,6.77
2018-12-01T21:28:30.643Z,7.50
2018-12-01T21:30:59.152Z,6.90
2018-12-01T21:33:29.232Z,7.10
2018-12-01T21:35:57.961Z,6.70
2018-12-01T21:38:26.485Z,7.03
2018-12-01T21:40:54.986Z,8.10
2018-12-01T21:43:23.450Z,7.37
2018-12-01T21:45:52.564Z,8.07
2018-12-01T21:48:21.127Z,8.37
2018-12-01T21:50:49.744Z,8.30
2018-12-01T21:53:21.059Z,8.70
2018-12-01T21:55:49.579Z,8.70
2018-12-01T21:58:18.593Z,9.37
2018-12-01T22:00:50.372Z,10.57
2018-12-01T22:03:19.461Z,9.90
2018-12-01T22:05:49.897Z,11.63
2018-12-01T22:08:18.424Z,11.43
2018-12-01T22:10:49.609Z,12.27
2018-12-01T22:13:18.456Z,12.90
2018-12-01T22:15:46.965Z,12.27
2018-12-01T22:18:15.417Z,11.80
2018-12-01T22:20:43.951Z,11.83
2018-12-01T22:23:12.941Z,12.80
2018-12-01T22:25:41.457Z,12.07
2018-12-01T22:28:11.491Z,12.73
2018-12-01T22:30:40.068Z,13.00
2018-12-01T22:33:15.020Z,12.60
2018-12-01T22:35:45.014Z,12.97
2018-12-01T22:38:13.549Z,13.10
2018-12-01T22:40:42.898Z,12.20
2018-12-01T22:43:11.670Z,12.80
2018-12-01T22:45:40.491Z,11.57
2018-12-01T22:48:10.543Z,12.93
2018-12-01T22:50:40.482Z,12.27
2018-12-01T22:53:08.925Z,11.03
2018-12-01T22:55:37.989Z,10.60
2018-12-01T22:58:14.967Z,10.67
2018-12-01T23:00:56.356Z,11.10
2018-12-01T23:03:27.288Z,10.70
2018-12-01T23:05:57.343Z,10.60
2018-12-01T23:08:26.945Z,10.70
2018-12-01T23:10:55.846Z,11.00
2018-12-01T23:13:24.406Z,10.87
2018-12-01T23:15:53.305Z,11.90
2018-12-01T23:18:23.516Z,12.53
2018-12-01T23:20:52.388Z,11.90
2018-12-01T23:23:21.255Z,12.17
2018-12-01T23:25:50.039Z,12.13
2018-12-01T23:28:18.614Z,11.97
2018-12-01T23:30:48.868Z,11.67
2018-12-01T23:33:20.919Z,11.13
2018-12-01T23:35:49.768Z,11.37
2018-12-01T23:38:18.237Z,11.40
2018-12-01T23:40:46.767Z,12.20
2018-12-01T23:43:15.224Z,12.03
2018-12-01T23:45:44.428Z,11.60
2018-12-01T23:48:13.247Z,11.37
2018-12-01T23:50:43.727Z,11.37
2018-12-01T23:53:14.692Z,12.20
2018-12-01T23:55:43.571Z,12.60
2018-12-01T23:58:12.015Z,11.90
